Time;durP1;ratioP1;P1;durP2;ratioP2;P2;SDS_P1;SDS_P2;PMS_P1;PMS_P2;Temp;Humidity;BMP_temperature;BMP_pressure;BME280_temperature;BME280_humidity;BME280_pressure;Samples;Min_cycle;Max_cycle;Signal;HPM_P1;HPM_P2
2022/12/28 00:01:59;;;;;;;;;;;17.50;44.80;;;;;;5074324;28;19969;-51
2022/12/28 00:04:24;;;;;;;;;;;17.50;45.00;;;;;;5074544;28;19908;-52
2022/12/28 00:06:50;;;;;;;;;;;17.40;45.20;;;;;;5074618;28;19912;-52
2022/12/28 00:09:15;;;;;;;;;;;17.40;45.10;;;;;;5074310;28;19916;-52
2022/12/28 00:11:41;;;;;;;;;;;17.30;45.80;;;;;;5063975;28;19913;-53
2022/12/28 00:14:06;;;;;;;;;;;17.30;45.10;;;;;;5072026;28;20007;-53
2022/12/28 00:16:33;;;;;;;;;;;17.20;45.00;;;;;;5073446;28;19955;-52
2022/12/28 00:18:59;;;;;;;;;;;17.20;45.00;;;;;;5071100;28;19936;-53
2022/12/28 00:21:24;;;;;;;;;;;17.20;45.30;;;;;;5054266;28;20007;-53
2022/12/28 00:23:50;;;;;;;;;;;17.20;45.00;;;;;;5061253;28;20019;-52
2022/12/28 00:26:17;;;;;;;;;;;17.20;45.50;;;;;;5073668;28;19916;-52
2022/12/28 00:28:42;;;;;;;;;;;17.10;45.30;;;;;;5073378;28;19912;-53
2022/12/28 00:31:08;;;;;;;;;;;17.10;45.50;;;;;;5073986;28;19920;-53
2022/12/28 00:33:33;;;;;;;;;;;17.00;45.50;;;;;;5072066;28;19919;-52
2022/12/28 00:35:59;;;;;;;;;;;17.00;45.50;;;;;;5081196;28;20368;-51
2022/12/28 00:38:24;;;;;;;;;;;16.90;45.50;;;;;;5073646;28;20406;-52
2022/12/28 00:40:50;;;;;;;;;;;17.00;45.70;;;;;;5073651;28;20257;-52
2022/12/28 00:43:15;;;;;;;;;;;16.90;45.60;;;;;;5073493;28;19916;-51
2022/12/28 00:45:44;;;;;;;;;;;16.90;45.70;;;;;;5073942;28;19958;-51
2022/12/28 00:48:10;;;;;;;;;;;16.90;45.60;;;;;;5073533;28;19936;-51
2022/12/28 00:50:35;;;;;;;;;;;16.90;45.50;;;;;;5073936;28;19912;-52
2022/12/28 00:53:01;;;;;;;;;;;16.90;45.40;;;;;;5073131;28;19948;-52
2022/12/28 00:55:26;;;;;;;;;;;16.90;45.40;;;;;;5073555;28;19916;-51
2022/12/28 00:57:52;;;;;;;;;;;16.90;45.50;;;;;;5072977;28;19912;-52
2022/12/28 01:00:17;;;;;;;;;;;16.80;45.50;;;;;;5073538;28;19909;-51
2022/12/28 01:02:43;;;;;;;;;;;16.80;45.50;;;;;;5073167;28;19912;-52
2022/12/28 01:05:08;;;;;;;;;;;16.80;45.60;;;;;;5073543;28;20287;-52
2022/12/28 01:07:34;;;;;;;;;;;16.80;45.50;;;;;;5073512;28;20385;-52
2022/12/28 01:09:59;;;;;;;;;;;16.80;45.50;;;;;;5072835;28;20299;-51
2022/12/28 01:12:24;;;;;;;;;;;16.80;45.60;;;;;;5072338;28;19955;-52
2022/12/28 01:14:50;;;;;;;;;;;16.80;45.50;;;;;;5070421;28;19966;-53
2022/12/28 01:17:15;;;;;;;;;;;16.80;45.60;;;;;;5071709;28;19938;-53
2022/12/28 01:19:41;;;;;;;;;;;16.80;45.80;;;;;;5069148;28;20343;-53
2022/12/28 01:22:07;;;;;;;;;;;16.80;45.60;;;;;;5072666;28;19929;-53
2022/12/28 01:24:32;;;;;;;;;;;16.70;45.70;;;;;;5067599;28;19913;-53
2022/12/28 01:26:57;;;;;;;;;;;16.70;45.80;;;;;;5075312;28;19930;-53
2022/12/28 01:29:23;;;;;;;;;;;16.70;45.80;;;;;;5072726;28;20241;-53
2022/12/28 01:31:48;;;;;;;;;;;16.60;45.90;;;;;;5072461;28;19954;-53
2022/12/28 01:34:14;;;;;;;;;;;16.60;45.90;;;;;;5063586;28;19936;-51
2022/12/28 01:36:39;;;;;;;;;;;16.60;45.80;;;;;;5053055;28;20286;-53
2022/12/28 01:39:05;;;;;;;;;;;16.60;45.90;;;;;;5063042;28;19916;-53
2022/12/28 01:41:30;;;;;;;;;;;16.60;45.80;;;;;;5072486;28;19923;-52
2022/12/28 01:43:55;;;;;;;;;;;16.50;45.90;;;;;;5071999;28;20294;-52
2022/12/28 01:46:22;;;;;;;;;;;16.50;46.10;;;;;;5072693;28;19909;-52
2022/12/28 01:48:49;;;;;;;;;;;16.50;46.20;;;;;;5071097;28;19942;-52
2022/12/28 01:51:15;;;;;;;;;;;16.50;46.00;;;;;;5072171;28;19915;-51
2022/12/28 01:53:40;;;;;;;;;;;16.50;46.00;;;;;;5071354;28;19916;-51
2022/12/28 01:56:06;;;;;;;;;;;16.50;46.10;;;;;;5072150;28;19912;-51
2022/12/28 01:58:31;;;;;;;;;;;16.40;46.10;;;;;;5069128;28;19912;-53
2022/12/28 02:00:57;;;;;;;;;;;16.40;46.10;;;;;;5071825;28;19927;-51
2022/12/28 02:03:24;;;;;;;;;;;16.50;46.00;;;;;;5071487;28;20023;-52
2022/12/28 02:05:51;;;;;;;;;;;16.50;46.10;;;;;;5070355;28;19919;-51
2022/12/28 02:08:23;;;;;;;;;;;16.40;46.10;;;;;;5104463;28;19912;-51
2022/12/28 02:10:48;;;;;;;;;;;16.40;46.30;;;;;;5103632;28;19962;-52
2022/12/28 02:13:14;;;;;;;;;;;16.40;46.30;;;;;;5102290;28;19912;-52
2022/12/28 02:15:40;;;;;;;;;;;16.50;45.90;;;;;;5071975;28;20319;-52
2022/12/28 02:18:05;;;;;;;;;;;16.80;46.00;;;;;;5070861;28;19959;-53
2022/12/28 02:20:49;;;;;;;;;;;17.10;45.30;;;;;;5065377;28;19972;-52
2022/12/28 02:23:18;;;;;;;;;;;17.50;44.50;;;;;;5070397;28;19919;-52
2022/12/28 02:26:15;;;;;;;;;;;17.80;43.70;;;;;;5071361;28;19916;-51
2022/12/28 02:28:56;;;;;;;;;;;18.30;43.00;;;;;;5074260;28;19918;-52
2022/12/28 02:31:44;;;;;;;;;;;19.00;42.20;;;;;;5072441;28;20015;-51
2022/12/28 02:34:10;;;;;;;;;;;19.80;40.10;;;;;;5068723;28;19919;-52
2022/12/28 02:36:37;;;;;;;;;;;20.60;38.90;;;;;;5068268;28;19912;-51
2022/12/28 02:39:12;;;;;;;;;;;21.10;37.90;;;;;;5067501;28;19909;-51
2022/12/28 02:41:37;;;;;;;;;;;21.60;37.30;;;;;;5059331;28;19920;-52
2022/12/28 02:44:02;;;;;;;;;;;21.80;36.80;;;;;;5071746;28;20023;-52
2022/12/28 02:52:07;;;;;;;;;;;22.30;36.20;;;;;;5071603;28;20025;-52
2022/12/28 02:57:32;;;;;;;;;;;21.90;36.70;;;;;;5077902;28;20331;-52
2022/12/28 03:00:05;;;;;;;;;;;21.70;37.20;;;;;;5071154;28;19920;-52
2022/12/28 03:02:33;;;;;;;;;;;21.60;37.50;;;;;;5071190;28;20288;-51
2022/12/28 03:05:04;;;;;;;;;;;21.70;37.40;;;;;;5075021;28;19917;-51
2022/12/28 03:10:54;;;;;;;;;;;21.90;36.90;;;;;;5041342;28;20016;-52
2022/12/28 03:25:41;;;;;;;;;;;22.00;37.00;;;;;;5072995;28;19919;-52
2022/12/28 03:33:03;;;;;;;;;;;22.00;37.00;;;;;;5102536;28;20396;-53
2022/12/28 03:35:49;;;;;;;;;;;22.00;37.00;;;;;;5066779;28;20003;-53
2022/12/28 03:38:26;;;;;;;;;;;22.00;37.10;;;;;;5073388;28;19919;-53
2022/12/28 03:40:53;;;;;;;;;;;21.80;37.10;;;;;;5067746;28;19970;-53
2022/12/28 03:43:41;;;;;;;;;;;21.70;37.40;;;;;;5071828;28;19951;-53
2022/12/28 03:46:28;;;;;;;;;;;21.70;37.40;;;;;;5068446;28;20279;-52
2022/12/28 03:48:53;;;;;;;;;;;21.70;37.60;;;;;;5049585;28;19917;-52
2022/12/28 03:51:19;;;;;;;;;;;21.80;37.10;;;;;;5073617;28;19913;-51
2022/12/28 03:53:46;;;;;;;;;;;22.00;36.90;;;;;;5073314;28;20007;-51
2022/12/28 03:56:12;;;;;;;;;;;21.90;36.90;;;;;;5074346;28;19966;-52
2022/12/28 03:58:38;;;;;;;;;;;21.90;37.70;;;;;;5072738;28;19916;-52
2022/12/28 04:01:03;;;;;;;;;;;21.90;37.00;;;;;;5072282;28;19928;-53
2022/12/28 04:03:29;;;;;;;;;;;22.10;36.80;;;;;;5074229;28;19957;-53
2022/12/28 04:05:54;;;;;;;;;;;22.20;36.70;;;;;;5073120;28;19912;-52
2022/12/28 04:08:20;;;;;;;;;;;22.30;36.50;;;;;;5072489;28;19999;-52
2022/12/28 04:10:45;;;;;;;;;;;22.30;36.30;;;;;;5070879;28;20027;-52
2022/12/28 04:13:11;;;;;;;;;;;22.40;36.20;;;;;;5072918;28;20002;-51
2022/12/28 04:15:36;;;;;;;;;;;22.50;36.20;;;;;;5071873;28;20003;-52
2022/12/28 04:18:02;;;;;;;;;;;22.50;36.20;;;;;;5073590;28;19912;-52
2022/12/28 04:20:27;;;;;;;;;;;22.40;36.20;;;;;;5068562;28;19931;-52
2022/12/28 04:22:52;;;;;;;;;;;22.40;36.40;;;;;;5072842;28;20018;-51
2022/12/28 04:25:18;;;;;;;;;;;22.30;36.40;;;;;;5069706;28;19912;-53
2022/12/28 04:27:43;;;;;;;;;;;22.20;36.50;;;;;;5073117;28;20011;-53
2022/12/28 04:30:09;;;;;;;;;;;22.20;36.60;;;;;;5073668;28;19947;-53
2022/12/28 04:32:34;;;;;;;;;;;22.20;36.70;;;;;;5074038;28;19919;-52
2022/12/28 04:35:00;;;;;;;;;;;22.10;36.70;;;;;;5073604;28;20314;-53
2022/12/28 04:37:25;;;;;;;;;;;22.10;36.80;;;;;;5074477;28;20352;-53
2022/12/28 04:39:51;;;;;;;;;;;22.00;36.80;;;;;;5069931;28;20356;-53
2022/12/28 04:42:16;;;;;;;;;;;22.00;36.80;;;;;;5056737;28;19927;-53
2022/12/28 04:44:42;;;;;;;;;;;22.00;36.70;;;;;;5073427;28;19909;-53
2022/12/28 04:47:07;;;;;;;;;;;22.00;37.00;;;;;;5074155;28;19916;-53
2022/12/28 04:49:32;;;;;;;;;;;21.90;36.80;;;;;;5073020;28;19959;-52
2022/12/28 04:51:58;;;;;;;;;;;21.90;36.80;;;;;;5074049;28;19916;-52
2022/12/28 04:54:23;;;;;;;;;;;22.00;36.80;;;;;;5072966;28;19912;-51
2022/12/28 04:56:49;;;;;;;;;;;22.00;36.70;;;;;;5073918;28;19919;-51
2022/12/28 04:59:14;;;;;;;;;;;21.90;36.80;;;;;;5073050;28;19908;-52
2022/12/28 05:01:39;;;;;;;;;;;21.90;36.80;;;;;;5071914;28;19973;-52
2022/12/28 05:04:05;;;;;;;;;;;21.90;36.70;;;;;;5071875;28;19909;-52
2022/12/28 05:06:30;;;;;;;;;;;22.00;36.80;;;;;;5071472;28;19920;-51
2022/12/28 05:08:56;;;;;;;;;;;21.90;36.70;;;;;;5072776;28;19915;-52
2022/12/28 05:11:22;;;;;;;;;;;22.00;36.70;;;;;;5072695;28;19956;-52
2022/12/28 05:13:48;;;;;;;;;;;22.20;36.60;;;;;;5071320;28;20660;-52
2022/12/28 05:16:14;;;;;;;;;;;22.20;36.60;;;;;;5072512;28;19923;-52
2022/12/28 05:18:39;;;;;;;;;;;22.10;36.50;;;;;;5069567;28;19919;-52
2022/12/28 05:21:06;;;;;;;;;;;22.20;36.40;;;;;;5071072;28;20007;-52
2022/12/28 05:23:31;;;;;;;;;;;22.20;36.30;;;;;;5071835;28;19912;-52
2022/12/28 05:25:57;;;;;;;;;;;22.30;36.30;;;;;;5070038;28;19924;-52
2022/12/28 05:28:22;;;;;;;;;;;22.30;36.20;;;;;;5071431;28;19926;-52
2022/12/28 05:30:48;;;;;;;;;;;22.30;36.10;;;;;;5072799;28;20307;-52
2022/12/28 05:33:13;;;;;;;;;;;22.40;36.10;;;;;;5073184;28;19917;-51
2022/12/28 05:35:38;;;;;;;;;;;22.30;36.10;;;;;;5064333;28;19912;-52
2022/12/28 05:38:04;;;;;;;;;;;22.30;36.10;;;;;;5064130;28;19958;-52
2022/12/28 05:40:29;;;;;;;;;;;22.30;36.10;;;;;;5070667;28;19919;-51
2022/12/28 05:42:55;;;;;;;;;;;22.20;36.20;;;;;;5063356;28;20003;-52
2022/12/28 05:45:20;;;;;;;;;;;22.20;36.20;;;;;;5070748;28;19947;-52
2022/12/28 05:47:46;;;;;;;;;;;22.10;36.40;;;;;;5071756;28;19912;-51
2022/12/28 05:50:11;;;;;;;;;;;22.10;36.50;;;;;;5072378;28;19943;-53
2022/12/28 05:52:37;;;;;;;;;;;22.00;36.50;;;;;;5071696;28;19918;-54
2022/12/28 05:55:02;;;;;;;;;;;22.10;36.40;;;;;;5071890;28;19920;-51
2022/12/28 05:57:27;;;;;;;;;;;22.10;36.50;;;;;;5069230;28;20455;-52
2022/12/28 05:59:53;;;;;;;;;;;22.10;36.40;;;;;;5071635;28;19948;-52
2022/12/28 06:02:18;;;;;;;;;;;22.10;36.40;;;;;;5070176;28;19928;-54
2022/12/28 06:04:44;;;;;;;;;;;22.10;36.40;;;;;;5071784;28;19908;-53
2022/12/28 06:07:09;;;;;;;;;;;22.10;36.40;;;;;;5071649;28;19919;-52
2022/12/28 06:09:35;;;;;;;;;;;22.00;36.50;;;;;;5070687;28;20243;-53
2022/12/28 06:12:00;;;;;;;;;;;22.10;36.50;;;;;;5070202;28;19935;-51
2022/12/28 06:14:25;;;;;;;;;;;22.10;36.50;;;;;;5070830;28;19919;-52
2022/12/28 06:16:51;;;;;;;;;;;22.10;36.40;;;;;;5070822;28;20574;-53
2022/12/28 06:19:17;;;;;;;;;;;22.10;36.40;;;;;;5066639;28;19913;-52
2022/12/28 06:21:42;;;;;;;;;;;22.20;36.40;;;;;;5070060;28;19927;-53
2022/12/28 06:24:08;;;;;;;;;;;22.20;36.30;;;;;;5065076;28;19920;-52
2022/12/28 06:26:34;;;;;;;;;;;22.20;36.20;;;;;;5068807;28;20276;-53
2022/12/28 06:29:00;;;;;;;;;;;22.20;36.20;;;;;;5079678;28;20037;-55
2022/12/28 06:31:27;;;;;;;;;;;22.20;36.20;;;;;;5080333;28;19961;-52
2022/12/28 06:33:53;;;;;;;;;;;22.20;36.20;;;;;;5072265;28;19928;-53
2022/12/28 06:36:19;;;;;;;;;;;22.20;36.20;;;;;;5072026;28;20026;-53
2022/12/28 06:38:45;;;;;;;;;;;22.20;36.10;;;;;;5075171;28;19912;-52
2022/12/28 06:41:11;;;;;;;;;;;22.20;36.10;;;;;;5075898;28;20330;-53
2022/12/28 06:43:37;;;;;;;;;;;22.20;36.10;;;;;;5073880;28;19908;-53
2022/12/28 06:46:02;;;;;;;;;;;22.20;36.20;;;;;;5076207;28;19958;-52
2022/12/28 06:48:28;;;;;;;;;;;22.10;36.40;;;;;;5075380;28;20447;-52
2022/12/28 06:50:57;;;;;;;;;;;22.00;36.40;;;;;;5076063;28;19978;-51
2022/12/28 06:53:23;;;;;;;;;;;22.00;36.50;;;;;;5075284;28;19909;-53
2022/12/28 06:55:52;;;;;;;;;;;22.00;36.40;;;;;;5075573;28;20015;-52
2022/12/28 06:58:18;;;;;;;;;;;22.10;36.50;;;;;;5074662;28;19919;-53
2022/12/28 07:00:43;;;;;;;;;;;22.10;36.30;;;;;;5070875;28;20307;-53
2022/12/28 07:03:08;;;;;;;;;;;22.10;36.30;;;;;;5073839;28;19912;-51
2022/12/28 07:05:34;;;;;;;;;;;22.10;36.20;;;;;;5079079;28;19908;-51
2022/12/28 07:07:59;;;;;;;;;;;22.20;36.30;;;;;;5083039;28;20291;-52
2022/12/28 07:10:25;;;;;;;;;;;22.10;36.30;;;;;;5074031;28;20380;-51
2022/12/28 07:12:50;;;;;;;;;;;22.10;36.30;;;;;;5072997;28;19920;-53
2022/12/28 07:15:15;;;;;;;;;;;22.10;36.30;;;;;;5074541;28;19908;-53
2022/12/28 07:17:41;;;;;;;;;;;22.20;36.30;;;;;;5072584;28;19988;-53
2022/12/28 07:20:06;;;;;;;;;;;22.20;36.20;;;;;;5065798;28;20022;-52
2022/12/28 07:22:32;;;;;;;;;;;22.30;36.10;;;;;;5073602;28;20041;-52
2022/12/28 07:24:57;;;;;;;;;;;22.30;36.00;;;;;;5074146;28;19936;-51
2022/12/28 07:27:23;;;;;;;;;;;22.20;36.10;;;;;;5071817;28;19916;-52
2022/12/28 07:29:48;;;;;;;;;;;22.30;36.20;;;;;;5067218;28;19928;-52
2022/12/28 07:32:13;;;;;;;;;;;22.20;36.00;;;;;;5073463;28;19916;-52
2022/12/28 07:34:39;;;;;;;;;;;22.20;36.10;;;;;;5071145;28;19999;-52
2022/12/28 07:37:04;;;;;;;;;;;22.20;36.10;;;;;;5060921;28;19912;-52
2022/12/28 07:39:30;;;;;;;;;;;22.30;36.10;;;;;;5068730;28;19924;-52
2022/12/28 07:41:55;;;;;;;;;;;22.20;36.10;;;;;;5074514;28;19917;-52
2022/12/28 07:44:21;;;;;;;;;;;22.20;36.10;;;;;;5063585;28;19916;-51
2022/12/28 07:46:46;;;;;;;;;;;22.10;36.40;;;;;;5074215;28;19909;-52
2022/12/28 07:49:11;;;;;;;;;;;22.10;36.50;;;;;;5063277;28;19912;-52
2022/12/28 07:51:37;;;;;;;;;;;22.10;36.50;;;;;;5074296;28;20004;-52
2022/12/28 07:54:03;;;;;;;;;;;22.10;36.50;;;;;;5074838;28;19912;-51
2022/12/28 07:56:28;;;;;;;;;;;22.10;36.50;;;;;;5073482;28;19969;-52
2022/12/28 07:58:55;;;;;;;;;;;22.00;36.60;;;;;;5073301;28;20019;-52
2022/12/28 08:01:20;;;;;;;;;;;22.10;37.30;;;;;;5064983;28;19917;-51
2022/12/28 08:03:46;;;;;;;;;;;22.10;36.50;;;;;;5073704;28;19912;-52
2022/12/28 08:06:17;;;;;;;;;;;22.10;36.40;;;;;;5069031;28;20364;-52
2022/12/28 08:08:43;;;;;;;;;;;22.20;36.60;;;;;;5074294;28;19917;-52
2022/12/28 08:11:13;;;;;;;;;;;22.20;36.60;;;;;;5072833;28;19916;-52
2022/12/28 08:13:39;;;;;;;;;;;22.20;36.60;;;;;;5069835;28;20380;-51
2022/12/28 08:16:05;;;;;;;;;;;22.10;36.40;;;;;;5071343;28;20026;-52
2022/12/28 08:18:30;;;;;;;;;;;22.10;36.50;;;;;;5072067;28;19912;-52
2022/12/28 08:21:02;;;;;;;;;;;22.20;36.50;;;;;;5054697;28;19940;-52
2022/12/28 08:23:28;;;;;;;;;;;22.20;36.50;;;;;;5068159;28;19912;-53
2022/12/28 08:25:54;;;;;;;;;;;22.20;36.50;;;;;;5072121;28;20057;-51
2022/12/28 08:28:19;;;;;;;;;;;22.20;36.50;;;;;;5072654;28;20007;-54
2022/12/28 08:30:44;;;;;;;;;;;22.20;36.60;;;;;;5074021;28;20441;-51
2022/12/28 08:33:10;;;;;;;;;;;22.20;36.70;;;;;;5074098;28;19908;-51
2022/12/28 08:35:35;;;;;;;;;;;22.20;36.60;;;;;;5073342;28;20279;-52
2022/12/28 08:38:01;;;;;;;;;;;22.30;36.60;;;;;;5074035;28;19909;-51
2022/12/28 08:40:28;;;;;;;;;;;22.30;36.60;;;;;;5073289;28;19956;-52
2022/12/28 08:43:00;;;;;;;;;;;22.20;36.60;;;;;;5073781;28;20363;-51
2022/12/28 08:45:25;;;;;;;;;;;22.10;36.70;;;;;;5073246;28;19912;-52
2022/12/28 08:47:51;;;;;;;;;;;22.10;36.80;;;;;;5073409;28;19966;-52
2022/12/28 08:50:16;;;;;;;;;;;22.10;36.90;;;;;;5073479;28;19912;-52
2022/12/28 08:52:42;;;;;;;;;;;22.20;36.90;;;;;;5072202;28;20457;-53
2022/12/28 08:55:07;;;;;;;;;;;22.20;36.90;;;;;;5053412;28;20343;-52
2022/12/28 08:57:33;;;;;;;;;;;22.20;36.90;;;;;;5057591;28;20287;-54
2022/12/28 08:59:58;;;;;;;;;;;22.20;37.10;;;;;;5071802;28;20003;-52
2022/12/28 09:02:23;;;;;;;;;;;22.10;37.20;;;;;;5071359;28;20012;-52
2022/12/28 09:04:49;;;;;;;;;;;22.00;37.30;;;;;;5071909;28;19964;-52
2022/12/28 09:07:14;;;;;;;;;;;22.00;37.40;;;;;;5070728;28;19912;-51
2022/12/28 09:09:40;;;;;;;;;;;22.00;37.30;;;;;;5072373;28;20018;-51
2022/12/28 09:12:06;;;;;;;;;;;22.10;37.40;;;;;;5071654;28;19912;-52
2022/12/28 09:14:31;;;;;;;;;;;22.00;37.40;;;;;;5071050;28;19927;-52
2022/12/28 09:16:57;;;;;;;;;;;22.10;37.50;;;;;;5071950;28;20390;-51
2022/12/28 09:19:22;;;;;;;;;;;22.10;37.50;;;;;;5070031;28;20394;-52
2022/12/28 09:21:51;;;;;;;;;;;22.10;37.40;;;;;;5066586;28;20452;-52
2022/12/28 09:24:16;;;;;;;;;;;22.10;37.30;;;;;;5080019;28;19963;-51
2022/12/28 09:26:42;;;;;;;;;;;22.10;37.40;;;;;;5071907;28;20017;-51
2022/12/28 09:29:09;;;;;;;;;;;22.20;37.40;;;;;;5072404;28;20434;-53
2022/12/28 09:31:35;;;;;;;;;;;22.20;37.50;;;;;;5071808;28;19909;-53
2022/12/28 09:34:04;;;;;;;;;;;22.20;37.50;;;;;;5072622;28;19912;-53
2022/12/28 09:36:33;;;;;;;;;;;22.30;37.60;;;;;;5089957;28;19978;-53
2022/12/28 09:38:59;;;;;;;;;;;22.30;37.60;;;;;;5080803;28;19917;-53
2022/12/28 09:41:25;;;;;;;;;;;22.20;37.60;;;;;;5072439;28;19917;-51
2022/12/28 09:43:52;;;;;;;;;;;22.10;38.50;;;;;;5071839;28;19916;-51
2022/12/28 09:46:17;;;;;;;;;;;22.00;38.00;;;;;;5069744;28;19912;-51
2022/12/28 09:48:43;;;;;;;;;;;22.00;38.30;;;;;;5069988;28;19916;-53
2022/12/28 09:51:08;;;;;;;;;;;22.00;38.30;;;;;;5071356;28;20007;-53
2022/12/28 09:53:35;;;;;;;;;;;22.00;38.30;;;;;;5072021;28;19964;-52
2022/12/28 09:56:04;;;;;;;;;;;22.00;38.30;;;;;;5065842;28;19916;-52
2022/12/28 09:58:30;;;;;;;;;;;22.00;38.20;;;;;;5070067;28;19912;-53
2022/12/28 10:00:56;;;;;;;;;;;22.10;38.20;;;;;;5071365;28;19973;-52
2022/12/28 10:03:40;;;;;;;;;;;22.10;38.20;;;;;;5071845;28;19920;-52
2022/12/28 10:06:10;;;;;;;;;;;22.10;38.20;;;;;;5069777;28;20368;-53
2022/12/28 10:08:36;;;;;;;;;;;22.00;38.40;;;;;;5071470;28;19912;-51
2022/12/28 10:11:01;;;;;;;;;;;21.90;38.60;;;;;;5066853;28;19919;-51
2022/12/28 10:13:30;;;;;;;;;;;21.90;38.60;;;;;;5066574;28;19913;-53
2022/12/28 10:15:55;;;;;;;;;;;21.90;38.60;;;;;;5072516;28;19908;-52
2022/12/28 10:18:22;;;;;;;;;;;22.00;38.60;;;;;;5070573;28;19913;-53
2022/12/28 10:20:48;;;;;;;;;;;22.00;38.50;;;;;;5070443;28;20376;-52
2022/12/28 10:23:17;;;;;;;;;;;22.10;38.50;;;;;;5071667;28;21280;-52
2022/12/28 10:25:43;;;;;;;;;;;22.20;38.50;;;;;;5070806;28;19916;-53
2022/12/28 10:28:08;;;;;;;;;;;22.20;38.40;;;;;;5065886;28;20333;-52
2022/12/28 10:30:42;;;;;;;;;;;22.20;38.30;;;;;;5063073;28;19915;-52
2022/12/28 10:33:08;;;;;;;;;;;22.20;38.30;;;;;;5071770;28;19913;-52
2022/12/28 10:35:35;;;;;;;;;;;22.30;38.30;;;;;;5056450;28;19966;-52
2022/12/28 10:38:17;;;;;;;;;;;22.20;38.30;;;;;;5071537;28;19917;-52
2022/12/28 10:40:42;;;;;;;;;;;22.30;38.30;;;;;;5071563;28;19909;-52
2022/12/28 10:43:15;;;;;;;;;;;22.30;38.30;;;;;;5069661;28;19924;-51
2022/12/28 10:45:44;;;;;;;;;;;22.40;38.30;;;;;;5066612;28;19912;-51
2022/12/28 10:48:20;;;;;;;;;;;22.50;38.20;;;;;;5071289;28;19919;-52
2022/12/28 10:50:45;;;;;;;;;;;22.60;38.00;;;;;;5073137;28;19913;-52
2022/12/28 10:53:15;;;;;;;;;;;22.70;37.80;;;;;;5071705;28;19912;-51
2022/12/28 10:55:40;;;;;;;;;;;22.80;37.70;;;;;;5071713;28;20440;-52
2022/12/28 10:58:15;;;;;;;;;;;22.80;37.70;;;;;;5062610;28;19912;-52
2022/12/28 11:00:41;;;;;;;;;;;22.80;37.70;;;;;;5066792;28;19956;-52
2022/12/28 11:03:16;;;;;;;;;;;22.80;37.70;;;;;;5079722;28;19959;-52
2022/12/28 11:05:42;;;;;;;;;;;22.70;37.90;;;;;;5092441;28;20348;-52
2022/12/28 11:08:09;;;;;;;;;;;22.70;38.10;;;;;;5092302;28;19916;-52
2022/12/28 11:10:36;;;;;;;;;;;22.60;38.20;;;;;;5090577;28;20288;-52
2022/12/28 11:13:01;;;;;;;;;;;22.60;38.30;;;;;;5082743;28;19993;-52
2022/12/28 11:15:28;;;;;;;;;;;22.40;38.60;;;;;;5071819;28;20007;-52
2022/12/28 11:17:55;;;;;;;;;;;22.30;38.80;;;;;;5071438;28;19922;-52
2022/12/28 11:20:38;;;;;;;;;;;22.30;38.90;;;;;;5057249;28;19909;-52
2022/12/28 11:23:04;;;;;;;;;;;22.20;39.20;;;;;;5087681;28;19947;-52
2022/12/28 11:25:31;;;;;;;;;;;22.10;39.30;;;;;;5054177;28;20388;-52
2022/12/28 11:27:56;;;;;;;;;;;22.10;39.40;;;;;;5054295;28;19909;-52
2022/12/28 11:30:22;;;;;;;;;;;22.10;39.60;;;;;;5054192;28;20410;-52
2022/12/28 11:32:49;;;;;;;;;;;22.10;39.50;;;;;;5071507;28;20239;-52
2022/12/28 11:35:15;;;;;;;;;;;22.00;39.60;;;;;;5075660;28;19917;-52
2022/12/28 11:37:47;;;;;;;;;;;22.10;39.70;;;;;;5075304;28;19908;-52
2022/12/28 11:40:33;;;;;;;;;;;22.10;39.60;;;;;;5074969;28;19995;-51
2022/12/28 11:42:58;;;;;;;;;;;22.20;39.50;;;;;;5074749;28;19934;-52
2022/12/28 11:45:42;;;;;;;;;;;22.30;39.40;;;;;;5074670;28;19916;-52
2022/12/28 11:48:26;;;;;;;;;;;22.20;39.30;;;;;;5071174;28;19939;-52
2022/12/28 11:50:52;;;;;;;;;;;22.30;39.30;;;;;;5074905;28;19916;-52
2022/12/28 11:53:18;;;;;;;;;;;22.20;39.50;;;;;;5075034;28;19908;-52
2022/12/28 11:55:49;;;;;;;;;;;22.30;39.40;;;;;;5074576;28;19939;-52
2022/12/28 11:58:34;;;;;;;;;;;22.20;39.60;;;;;;5071782;28;19931;-52
2022/12/28 12:01:03;;;;;;;;;;;22.30;39.50;;;;;;5054221;28;19995;-53
2022/12/28 12:03:47;;;;;;;;;;;22.30;39.60;;;;;;5063280;28;19920;-52
2022/12/28 12:06:12;;;;;;;;;;;22.20;39.60;;;;;;5076079;28;19919;-52
2022/12/28 12:08:38;;;;;;;;;;;22.20;39.80;;;;;;5074643;28;19924;-52
2022/12/28 12:11:22;;;;;;;;;;;22.20;39.60;;;;;;5074519;28;19924;-52
2022/12/28 12:13:48;;;;;;;;;;;22.30;39.90;;;;;;5074277;28;19918;-52
2022/12/28 12:16:21;;;;;;;;;;;22.30;39.80;;;;;;5073627;28;20283;-52
2022/12/28 12:18:51;;;;;;;;;;;22.30;39.90;;;;;;5073799;28;19947;-52
2022/12/28 12:21:27;;;;;;;;;;;22.40;39.90;;;;;;5053138;28;19921;-52
2022/12/28 12:23:54;;;;;;;;;;;22.40;39.70;;;;;;5053677;28;20011;-52
2022/12/28 12:26:26;;;;;;;;;;;22.50;39.70;;;;;;5054084;28;19913;-52
2022/12/28 12:28:53;;;;;;;;;;;22.40;39.90;;;;;;5057115;28;19913;-52
2022/12/28 12:31:28;;;;;;;;;;;22.40;40.00;;;;;;5074324;28;19919;-52
2022/12/28 12:33:55;;;;;;;;;;;22.30;40.20;;;;;;5106602;28;20010;-52
2022/12/28 12:36:25;;;;;;;;;;;22.30;40.30;;;;;;5072824;28;19909;-52
2022/12/28 12:39:02;;;;;;;;;;;22.40;40.10;;;;;;5077348;28;19908;-53
2022/12/28 12:41:30;;;;;;;;;;;22.40;39.90;;;;;;5094344;28;19912;-52
2022/12/28 12:44:05;;;;;;;;;;;22.60;39.60;;;;;;5075975;28;20284;-52
2022/12/28 12:46:43;;;;;;;;;;;22.50;39.80;;;;;;5077522;28;19913;-52
2022/12/28 12:49:27;;;;;;;;;;;22.60;39.60;;;;;;5078703;28;19921;-52
2022/12/28 12:52:05;;;;;;;;;;;22.70;39.70;;;;;;5059761;28;19913;-52
2022/12/28 12:54:34;;;;;;;;;;;22.60;39.70;;;;;;5079952;28;19952;-51
2022/12/28 12:57:05;;;;;;;;;;;22.50;39.80;;;;;;5093979;28;19944;-52
2022/12/28 12:59:35;;;;;;;;;;;22.50;40.00;;;;;;5068421;28;19921;-54
2022/12/28 13:02:10;;;;;;;;;;;22.50;40.00;;;;;;5066485;28;19928;-51
2022/12/28 13:04:35;;;;;;;;;;;22.30;40.00;;;;;;5069171;28;19913;-51
2022/12/28 13:07:02;;;;;;;;;;;22.30;40.10;;;;;;5065597;28;19920;-51
2022/12/28 13:09:28;;;;;;;;;;;22.30;40.20;;;;;;5065516;28;19915;-51
2022/12/28 13:11:54;;;;;;;;;;;22.20;40.30;;;;;;5055466;28;20300;-51
2022/12/28 13:14:20;;;;;;;;;;;22.30;40.40;;;;;;5069830;28;19921;-51
2022/12/28 13:16:49;;;;;;;;;;;22.30;40.30;;;;;;5060541;28;20007;-52
2022/12/28 13:19:15;;;;;;;;;;;22.20;40.40;;;;;;5097381;27;19923;-52
2022/12/28 13:21:42;;;;;;;;;;;22.30;40.40;;;;;;5066705;28;19921;-52
2022/12/28 13:24:20;;;;;;;;;;;22.30;40.10;;;;;;5062234;28;19966;-52
2022/12/28 13:26:45;;;;;;;;;;;22.20;40.30;;;;;;5062534;28;20000;-52
2022/12/28 13:29:18;;;;;;;;;;;22.30;40.30;;;;;;5073097;28;20007;-53
2022/12/28 13:31:48;;;;;;;;;;;22.30;40.40;;;;;;5105779;28;19998;-52
2022/12/28 13:34:24;;;;;;;;;;;22.30;40.40;;;;;;5073401;28;20322;-52
2022/12/28 13:36:50;;;;;;;;;;;22.30;40.50;;;;;;5073088;28;19919;-52
2022/12/28 13:39:16;;;;;;;;;;;22.30;40.70;;;;;;5082878;28;19964;-52
2022/12/28 13:41:51;;;;;;;;;;;22.30;40.70;;;;;;5092867;28;19912;-51
2022/12/28 13:44:43;;;;;;;;;;;22.30;40.70;;;;;;5073039;28;19908;-53
2022/12/28 13:47:10;;;;;;;;;;;22.30;40.70;;;;;;5071150;28;19917;-52
2022/12/28 13:49:59;;;;;;;;;;;22.30;40.60;;;;;;5057052;28;19958;-53
2022/12/28 13:52:34;;;;;;;;;;;22.30;40.70;;;;;;5075235;28;19920;-52
2022/12/28 13:55:02;;;;;;;;;;;22.30;40.70;;;;;;5084306;28;20284;-52
2022/12/28 13:57:27;;;;;;;;;;;22.30;40.70;;;;;;5105656;28;19976;-53
2022/12/28 13:59:53;;;;;;;;;;;22.30;40.70;;;;;;5067486;28;20003;-52
2022/12/28 14:02:18;;;;;;;;;;;22.40;40.80;;;;;;5066076;28;19927;-52
2022/12/28 14:04:44;;;;;;;;;;;22.30;40.70;;;;;;5078286;28;19962;-52
2022/12/28 14:07:11;;;;;;;;;;;22.30;40.80;;;;;;5088876;28;19915;-52
2022/12/28 14:09:36;;;;;;;;;;;22.30;40.80;;;;;;5064809;28;19920;-53
2022/12/28 14:12:02;;;;;;;;;;;22.30;41.00;;;;;;5072344;28;19954;-52
2022/12/28 14:14:27;;;;;;;;;;;22.20;41.00;;;;;;5070843;28;20007;-52
2022/12/28 14:16:52;;;;;;;;;;;22.20;41.30;;;;;;5071098;28;19916;-52
2022/12/28 14:19:18;;;;;;;;;;;22.10;41.30;;;;;;5073626;28;19917;-52
2022/12/28 14:21:47;;;;;;;;;;;22.10;41.40;;;;;;5071560;28;19920;-52
2022/12/28 14:24:13;;;;;;;;;;;22.20;41.50;;;;;;5070259;28;19916;-52
2022/12/28 14:26:39;;;;;;;;;;;22.20;41.50;;;;;;5069600;28;19935;-52
2022/12/28 14:29:12;;;;;;;;;;;22.30;41.30;;;;;;5069729;28;19921;-52
2022/12/28 14:31:38;;;;;;;;;;;22.30;41.20;;;;;;5073128;28;19913;-52
2022/12/28 14:34:03;;;;;;;;;;;22.20;41.20;;;;;;5069433;28;19917;-52
2022/12/28 14:36:30;;;;;;;;;;;22.40;41.00;;;;;;5070703;28;20368;-52
2022/12/28 14:38:56;;;;;;;;;;;22.50;40.90;;;;;;5104053;28;19956;-51
2022/12/28 14:41:22;;;;;;;;;;;22.50;40.90;;;;;;5107391;28;19959;-51
2022/12/28 14:43:55;;;;;;;;;;;22.60;40.70;;;;;;5071429;28;20256;-52
2022/12/28 14:46:30;;;;;;;;;;;22.50;40.70;;;;;;5066620;28;19960;-52
2022/12/28 14:48:56;;;;;;;;;;;22.50;40.80;;;;;;5054592;28;19931;-52